Time;durP1;ratioP1;P1;durP2;ratioP2;P2;SDS_P1;SDS_P2;PMS_P1;PMS_P2;Temp;Humidity;BMP_temperature;BMP_pressure;BME280_temperature;BME280_humidity;BME280_pressure;Samples;Min_cycle;Max_cycle;Signal;HPM_P1;HPM_P2
2023/02/06 00:01:10;;;;;;;0.30;0.30;;;;;;;3.63;95.94;103246.47;4943490;28;20043;-61
2023/02/06 00:03:35;;;;;;;0.75;0.60;;;;;;;3.48;95.61;103248.88;4946973;28;20608;-56
2023/02/06 00:06:01;;;;;;;0.25;0.25;;;;;;;3.29;96.57;103250.16;4950306;28;20174;-54
2023/02/06 00:08:27;;;;;;;0.40;0.40;;;;;;;3.23;97.17;103261.00;4950629;29;20035;-57
2023/02/06 00:10:53;;;;;;;2.47;0.52;;;;;;;3.29;97.04;103254.72;4939757;28;20062;-56
2023/02/06 00:13:19;;;;;;;0.30;0.30;;;;;;;2.98;97.85;103261.34;4949388;29;20087;-59
2023/02/06 00:15:44;;;;;;;0.63;0.57;;;;;;;2.91;98.70;103254.56;4943477;28;20046;-61
2023/02/06 00:18:10;;;;;;;1.25;0.75;;;;;;;2.88;99.20;103250.53;4953348;28;20110;-56
2023/02/06 00:20:36;;;;;;;0.30;0.30;;;;;;;3.09;98.73;103249.84;4951890;28;20035;-58
2023/02/06 00:23:22;;;;;;;0.40;0.40;;;;;;;3.31;97.67;103257.94;4951770;28;20043;-55
2023/02/06 00:25:48;;;;;;;0.57;0.57;;;;;;;3.36;97.29;103261.50;4930095;29;20059;-54
2023/02/06 00:28:13;;;;;;;0.50;0.50;;;;;;;3.40;97.01;103265.28;4940923;29;20124;-58
2023/02/06 00:30:39;;;;;;;0.63;0.63;;;;;;;3.45;96.61;103252.03;4937263;29;20131;-57
2023/02/06 00:33:05;;;;;;;0.30;0.30;;;;;;;3.50;96.46;103264.63;4935580;29;20059;-61
2023/02/06 00:35:30;;;;;;;0.82;0.50;;;;;;;3.52;95.85;103262.53;4932585;29;20517;-56
2023/02/06 00:37:56;;;;;;;0.55;0.55;;;;;;;3.59;95.64;103265.84;4943915;29;20055;-54
2023/02/06 00:40:21;;;;;;;0.52;0.38;;;;;;;3.60;95.42;103270.91;4945556;29;20047;-61
2023/02/06 00:42:46;;;;;;;1.58;1.48;;;;;;;3.51;95.00;103267.06;4939380;29;20074;-55
2023/02/06 00:45:12;;;;;;;0.20;0.20;;;;;;;3.40;95.21;103264.47;4938477;29;20135;-58
2023/02/06 00:47:39;;;;;;;0.57;0.57;;;;;;;3.44;94.91;103265.59;4915541;29;20032;-56
2023/02/06 00:50:05;;;;;;;0.88;0.88;;;;;;;3.45;94.97;103268.00;4932652;29;20042;-58
2023/02/06 00:52:30;;;;;;;0.40;0.40;;;;;;;3.39;95.21;103268.16;4937527;29;20035;-61
2023/02/06 00:54:56;;;;;;;0.50;0.50;;;;;;;3.34;95.37;103262.75;4933233;29;20487;-61
2023/02/06 00:57:21;;;;;;;0.30;0.30;;;;;;;3.26;95.36;103266.63;4918438;29;20039;-58
2023/02/06 00:59:46;;;;;;;0.40;0.40;;;;;;;3.30;95.20;103270.44;4936146;29;20028;-56
2023/02/06 01:02:12;;;;;;;0.80;0.50;;;;;;;3.37;94.81;103268.41;4934500;28;20050;-58
2023/02/06 01:04:37;;;;;;;0.60;0.60;;;;;;;3.21;94.99;103282.53;4940759;28;20040;-59
2023/02/06 01:07:05;;;;;;;0.40;0.40;;;;;;;3.29;94.88;103274.13;4944569;28;20054;-58
2023/02/06 01:09:30;;;;;;;0.30;0.30;;;;;;;3.20;95.18;103272.09;4949462;28;20406;-61
2023/02/06 01:11:56;;;;;;;0.75;0.75;;;;;;;3.26;95.07;103271.97;4952731;28;20039;-58
2023/02/06 01:14:21;;;;;;;1.23;0.60;;;;;;;3.28;94.68;103264.53;4948234;28;20442;-59
2023/02/06 01:16:47;;;;;;;0.30;0.30;;;;;;;3.28;94.95;103259.22;4942103;28;20043;-61
2023/02/06 01:19:12;;;;;;;0.40;0.40;;;;;;;3.23;94.97;103250.34;4949483;28;20027;-58
2023/02/06 01:21:37;;;;;;;0.95;0.95;;;;;;;3.20;95.11;103256.94;4950104;28;20134;-60
2023/02/06 01:24:03;;;;;;;0.30;0.30;;;;;;;3.19;95.70;103265.19;4962002;28;20405;-59
2023/02/06 01:26:29;;;;;;;0.90;0.68;;;;;;;3.23;95.22;103269.75;4960966;28;20081;-61
2023/02/06 01:28:55;;;;;;;0.30;0.30;;;;;;;3.26;95.08;103269.31;4964528;28;20031;-58
2023/02/06 01:31:26;;;;;;;0.30;0.30;;;;;;;3.22;94.89;103265.50;4942427;28;20035;-61
2023/02/06 01:33:53;;;;;;;0.40;0.40;;;;;;;3.10;95.47;103267.41;4950620;28;20118;-57
2023/02/06 01:36:20;;;;;;;0.50;0.50;;;;;;;3.21;95.43;103269.22;4947457;28;20043;-57
2023/02/06 01:38:46;;;;;;;0.60;0.60;;;;;;;3.24;94.84;103263.41;4937754;29;20530;-59
2023/02/06 01:41:13;;;;;;;0.35;0.35;;;;;;;3.28;94.73;103269.88;4951667;28;20500;-57
2023/02/06 01:43:44;;;;;;;0.30;0.30;;;;;;;3.29;94.69;103268.81;4944503;28;20044;-60
2023/02/06 01:46:10;;;;;;;;;;;;;;;3.30;94.39;103280.28;4950679;28;20449;-61
2023/02/06 01:48:35;;;;;;;0.20;0.20;;;;;;;3.23;94.77;103277.75;4940131;28;20009;-60
2023/02/06 01:51:03;;;;;;;0.50;0.50;;;;;;;3.18;94.96;103284.84;4942751;28;20045;-60
2023/02/06 01:53:31;;;;;;;0.82;0.82;;;;;;;3.13;94.88;103282.91;4943867;29;20106;-58
2023/02/06 01:56:00;;;;;;;0.30;0.30;;;;;;;3.15;95.05;103280.81;4946520;28;20061;-54
2023/02/06 01:58:30;;;;;;;0.30;0.30;;;;;;;3.18;94.84;103290.97;4956025;28;20046;-54
2023/02/06 02:00:58;;;;;;;0.30;0.30;;;;;;;3.10;94.96;103290.56;4947912;28;20031;-59
2023/02/06 02:03:25;;;;;;;0.40;0.40;;;;;;;3.11;94.99;103295.66;4941072;29;20654;-54
2023/02/06 02:05:54;;;;;;;0.60;0.60;;;;;;;3.08;94.77;103288.13;4942927;29;20031;-61
2023/02/06 02:08:26;;;;;;;0.38;0.38;;;;;;;3.10;94.76;103283.38;4942552;29;20035;-58
2023/02/06 02:10:52;;;;;;;0.30;0.30;;;;;;;3.17;94.33;103272.59;4961008;28;20550;-61
2023/02/06 02:13:17;;;;;;;0.30;0.30;;;;;;;3.13;94.35;103274.13;4940731;28;20337;-62
2023/02/06 02:15:48;;;;;;;1.08;0.82;;;;;;;3.07;94.28;103275.88;4964472;28;20031;-58
2023/02/06 02:18:32;;;;;;;0.50;0.50;;;;;;;2.95;94.84;103277.78;4946150;28;20682;-57
2023/02/06 02:21:06;;;;;;;0.20;0.20;;;;;;;2.92;94.71;103280.94;4943422;28;20095;-61
2023/02/06 02:23:38;;;;;;;0.60;0.60;;;;;;;2.93;94.63;103282.53;4946797;28;20130;-59
2023/02/06 02:26:13;;;;;;;0.30;0.30;;;;;;;2.93;94.87;103292.38;4945169;28;20038;-58
2023/02/06 02:28:48;;;;;;;0.30;0.30;;;;;;;2.81;94.82;103295.06;4945136;28;20043;-61
2023/02/06 02:31:22;;;;;;;0.40;0.40;;;;;;;2.90;95.02;103295.53;4953883;28;20039;-59
2023/02/06 02:34:34;;;;;;;0.30;0.30;;;;;;;2.87;94.42;103293.31;4951049;28;20046;-56
2023/02/06 02:37:38;;;;;;;0.20;0.20;;;;;;;2.72;94.81;103293.84;4959790;28;20037;-59
2023/02/06 02:40:09;;;;;;;0.43;0.43;;;;;;;2.70;94.83;103294.09;4940304;28;20051;-61
2023/02/06 02:42:53;;;;;;;0.30;0.30;;;;;;;2.71;95.37;103292.22;4960483;28;20047;-58
2023/02/06 02:45:26;;;;;;;0.50;0.50;;;;;;;2.71;94.89;103285.06;4957151;28;20038;-60
2023/02/06 02:48:05;;;;;;;0.30;0.30;;;;;;;2.71;94.97;103285.06;4935880;28;20040;-62
2023/02/06 02:50:32;;;;;;;0.63;0.50;;;;;;;2.70;94.80;103277.31;4963784;28;20035;-61
2023/02/06 02:53:00;;;;;;;0.32;0.32;;;;;;;2.73;94.68;103276.81;4948427;28;20568;-60
2023/02/06 02:55:26;;;;;;;0.30;0.30;;;;;;;2.72;94.20;103275.22;4965024;28;20437;-59
2023/02/06 02:58:04;;;;;;;0.63;0.63;;;;;;;2.73;94.22;103276.81;4954327;28;20023;-54
2023/02/06 03:00:33;;;;;;;0.30;0.30;;;;;;;2.74;94.38;103283.78;4939332;28;20050;-54
2023/02/06 03:03:01;;;;;;;0.30;0.30;;;;;;;2.73;94.42;103288.28;4953209;28;20715;-57
2023/02/06 03:05:28;;;;;;;0.40;0.40;;;;;;;2.69;94.25;103265.06;4944684;28;20082;-57
2023/02/06 03:08:17;;;;;;;0.60;0.60;;;;;;;2.73;94.18;103266.19;4944962;28;20027;-58
2023/02/06 03:11:13;;;;;;;0.47;0.47;;;;;;;2.67;94.38;103259.97;4950467;28;20114;-61
2023/02/06 03:13:47;;;;;;;0.30;0.30;;;;;;;2.72;94.32;103251.28;4948965;29;20035;-58
2023/02/06 03:16:19;;;;;;;0.20;0.20;;;;;;;2.72;93.96;103238.00;4966261;28;20042;-60
2023/02/06 03:18:54;;;;;;;0.30;0.30;;;;;;;2.71;94.23;103247.00;4957382;28;20032;-57
2023/02/06 03:21:22;;;;;;;0.50;0.50;;;;;;;2.72;94.04;103246.78;4945661;29;20038;-56
2023/02/06 03:23:51;;;;;;;0.25;0.25;;;;;;;2.69;94.07;103244.59;4949123;28;20082;-56
2023/02/06 03:26:21;;;;;;;0.38;0.38;;;;;;;2.64;94.09;103255.13;4949880;28;20062;-61
2023/02/06 03:28:51;;;;;;;0.30;0.30;;;;;;;2.66;94.17;103255.72;4946730;29;20031;-60
2023/02/06 03:31:27;;;;;;;0.28;0.28;;;;;;;2.65;94.11;103245.31;4937356;28;20664;-57
2023/02/06 03:34:10;;;;;;;0.35;0.35;;;;;;;2.67;94.17;103246.66;4947210;28;20034;-52
2023/02/06 03:36:36;;;;;;;0.30;0.30;;;;;;;2.73;93.71;103263.53;4945121;28;20039;-59
2023/02/06 03:39:02;;;;;;;0.50;0.50;;;;;;;2.72;93.63;103253.94;4948836;28;20035;-62
2023/02/06 03:41:32;;;;;;;0.20;0.20;;;;;;;2.65;93.39;103245.31;4946927;28;20059;-61
2023/02/06 03:44:00;;;;;;;0.47;0.47;;;;;;;2.55;94.15;103237.97;4944970;28;20514;-61
2023/02/06 03:46:27;;;;;;;0.20;0.20;;;;;;;2.60;93.82;103248.69;4935583;28;20042;-60
2023/02/06 03:48:58;;;;;;;0.30;0.30;;;;;;;2.60;94.16;103237.22;4939562;28;20112;-60
2023/02/06 03:51:32;;;;;;;0.65;0.55;;;;;;;2.58;94.45;103226.00;4937693;28;20035;-62
2023/02/06 03:54:01;;;;;;;0.52;0.43;;;;;;;2.60;94.19;103231.91;4935939;28;20744;-57
2023/02/06 03:56:55;;;;;;;0.20;0.20;;;;;;;2.60;93.92;103232.72;4942899;28;20450;-60
2023/02/06 03:59:21;;;;;;;2.95;0.60;;;;;;;2.61;93.79;103230.88;4949188;28;20045;-60
2023/02/06 04:01:51;;;;;;;0.28;0.28;;;;;;;2.60;93.52;103240.69;4956659;28;20110;-62
2023/02/06 04:04:20;;;;;;;0.40;0.40;;;;;;;2.50;93.80;103240.50;4944969;28;20035;-60
2023/02/06 04:06:46;;;;;;;0.30;0.30;;;;;;;2.54;94.19;103240.81;4949911;28;20114;-60
2023/02/06 04:09:11;;;;;;;0.32;0.32;;;;;;;2.52;94.28;103243.72;4948135;28;20043;-53
2023/02/06 04:11:37;;;;;;;0.30;0.30;;;;;;;2.55;94.16;103247.78;4945723;28;20039;-58
2023/02/06 04:14:02;;;;;;;0.30;0.30;;;;;;;2.57;93.74;103245.69;4941435;28;20494;-57
2023/02/06 04:16:28;;;;;;;0.20;0.20;;;;;;;2.53;93.87;103244.53;4946508;28;20110;-57
2023/02/06 04:18:53;;;;;;;0.20;0.20;;;;;;;2.48;93.69;103247.91;4943532;29;20403;-55
2023/02/06 04:21:19;;;;;;;0.40;0.40;;;;;;;2.44;93.93;103245.97;4948470;28;20043;-61
2023/02/06 04:23:44;;;;;;;0.40;0.40;;;;;;;2.44;93.66;103252.06;4949175;28;20112;-59
2023/02/06 04:26:10;;;;;;;0.30;0.30;;;;;;;2.40;93.93;103242.94;4949642;28;20765;-62
2023/02/06 04:28:35;;;;;;;0.65;0.50;;;;;;;2.42;93.52;103238.22;4944875;28;20035;-61
2023/02/06 04:31:01;;;;;;;0.38;0.38;;;;;;;2.40;93.71;103234.19;4947183;29;20031;-60
2023/02/06 04:33:26;;;;;;;0.20;0.20;;;;;;;2.43;93.61;103236.38;4944878;28;20039;-55
2023/02/06 04:35:52;;;;;;;0.30;0.30;;;;;;;2.42;93.49;103242.75;4944199;28;20031;-58
2023/02/06 04:38:17;;;;;;;0.30;0.30;;;;;;;2.43;93.29;103231.03;4949901;28;20486;-57
2023/02/06 04:40:43;;;;;;;0.43;0.43;;;;;;;2.48;93.30;103233.78;4950574;28;20023;-60
2023/02/06 04:43:08;;;;;;;0.22;0.22;;;;;;;2.50;93.30;103235.19;4949239;28;20032;-55
2023/02/06 04:45:34;;;;;;;0.50;0.50;;;;;;;2.47;93.48;103232.19;4950989;28;20065;-57
2023/02/06 04:47:59;;;;;;;0.40;0.40;;;;;;;2.44;93.24;103235.34;4950673;28;20129;-56
2023/02/06 04:50:28;;;;;;;0.30;0.30;;;;;;;2.36;93.58;103241.03;4951268;28;20037;-57
2023/02/06 04:52:53;;;;;;;0.30;0.30;;;;;;;2.30;94.10;103253.41;4943199;28;20115;-57
2023/02/06 04:55:18;;;;;;;0.30;0.30;;;;;;;2.36;93.93;103252.44;4950623;29;20114;-54
2023/02/06 04:57:44;;;;;;;0.70;0.45;;;;;;;2.34;93.48;103251.84;4943211;28;20066;-59
2023/02/06 05:00:10;;;;;;;0.50;0.50;;;;;;;2.36;93.75;103259.63;4948661;28;20034;-56
2023/02/06 05:02:38;;;;;;;0.30;0.30;;;;;;;2.35;93.49;103260.66;4947218;28;20486;-54
2023/02/06 05:05:05;;;;;;;0.30;0.30;;;;;;;2.36;93.81;103271.03;4943871;29;20035;-57
2023/02/06 05:07:31;;;;;;;0.30;0.30;;;;;;;2.33;94.00;103263.56;4952080;28;20454;-57
2023/02/06 05:09:56;;;;;;;0.30;0.30;;;;;;;2.34;93.93;103243.09;4953684;29;20035;-55
2023/02/06 05:12:22;;;;;;;0.30;0.30;;;;;;;2.35;93.47;103258.81;4951441;28;20051;-56
2023/02/06 05:14:47;;;;;;;0.80;0.63;;;;;;;2.32;93.62;103258.47;4960131;28;20525;-60
2023/02/06 05:17:13;;;;;;;0.50;0.50;;;;;;;2.28;94.08;103252.00;4954986;28;20046;-55
2023/02/06 05:19:38;;;;;;;0.20;0.20;;;;;;;2.25;94.25;103255.94;4954436;28;20378;-57
2023/02/06 05:22:03;;;;;;;0.82;0.60;;;;;;;2.30;94.18;103252.59;4946065;28;20479;-57
2023/02/06 05:24:29;;;;;;;0.30;0.30;;;;;;;2.27;94.30;103255.69;4954018;29;20047;-59
2023/02/06 05:26:57;;;;;;;0.30;0.30;;;;;;;2.26;94.23;103254.91;4948124;28;20389;-58
2023/02/06 05:29:24;;;;;;;0.30;0.30;;;;;;;2.25;94.09;103249.81;4953209;29;20025;-57
2023/02/06 05:31:50;;;;;;;0.40;0.40;;;;;;;2.20;93.97;103255.03;4952273;28;20750;-54
2023/02/06 05:34:15;;;;;;;0.30;0.30;;;;;;;2.15;94.34;103257.59;4944519;28;20107;-57
2023/02/06 05:36:41;;;;;;;0.30;0.30;;;;;;;2.18;94.48;103252.59;4950706;28;20475;-57
2023/02/06 05:39:06;;;;;;;0.32;0.32;;;;;;;2.18;93.99;103263.25;4953699;28;20023;-59
2023/02/06 05:41:32;;;;;;;0.40;0.40;;;;;;;2.25;94.01;103271.06;4953163;29;20039;-55
2023/02/06 05:43:57;;;;;;;0.40;0.40;;;;;;;2.22;93.85;103284.84;4944892;28;20082;-61
2023/02/06 05:46:22;;;;;;;0.40;0.40;;;;;;;2.21;93.76;103288.53;4934143;29;20114;-56
2023/02/06 05:48:48;;;;;;;0.30;0.30;;;;;;;2.18;94.02;103292.47;4943110;29;20039;-57
2023/02/06 05:51:13;;;;;;;0.30;0.30;;;;;;;2.19;93.48;103291.41;4940421;29;20038;-60
2023/02/06 05:53:39;;;;;;;0.30;0.30;;;;;;;2.22;93.92;103301.59;4937800;29;20078;-60
2023/02/06 05:56:04;;;;;;;0.40;0.40;;;;;;;2.21;93.93;103293.84;4933635;28;20031;-58
2023/02/06 05:58:30;;;;;;;0.30;0.30;;;;;;;2.18;93.99;103311.06;4935959;29;20039;-56
2023/02/06 06:00:55;;;;;;;0.38;0.38;;;;;;;2.16;93.91;103301.72;4929699;29;20040;-57
2023/02/06 06:03:21;;;;;;;0.30;0.30;;;;;;;2.12;94.14;103300.56;4937380;29;20036;-59
2023/02/06 06:05:46;;;;;;;0.30;0.30;;;;;;;2.14;94.30;103296.63;4932282;29;20032;-57
2023/02/06 06:08:12;;;;;;;0.57;0.57;;;;;;;2.19;94.21;103303.91;4939634;28;20043;-58
2023/02/06 06:10:38;;;;;;;0.38;0.38;;;;;;;2.17;94.19;103301.47;4940036;28;20035;-60
2023/02/06 06:13:03;;;;;;;0.32;0.32;;;;;;;2.18;93.80;103299.63;4941290;28;20070;-63
2023/02/06 06:15:28;;;;;;;0.45;0.45;;;;;;;2.20;93.96;103302.88;4943375;28;20101;-56
2023/02/06 06:17:54;;;;;;;0.30;0.30;;;;;;;2.15;93.77;103287.59;4943122;29;20031;-59
2023/02/06 06:20:19;;;;;;;0.70;0.70;;;;;;;2.13;93.76;103296.88;4939538;28;20055;-60
2023/02/06 06:22:45;;;;;;;0.25;0.25;;;;;;;2.15;94.20;103294.78;4936537;28;20042;-52
2023/02/06 06:25:10;;;;;;;0.40;0.40;;;;;;;2.14;93.81;103293.97;4945918;29;20038;-55
2023/02/06 06:27:36;;;;;;;0.40;0.40;;;;;;;2.14;93.83;103296.63;4943709;28;20418;-59
2023/02/06 06:30:02;;;;;;;0.30;0.30;;;;;;;2.15;93.98;103300.09;4946124;28;20031;-55
2023/02/06 06:32:27;;;;;;;0.25;0.25;;;;;;;2.12;93.79;103297.91;4936956;28;20486;-54
2023/02/06 06:34:53;;;;;;;0.30;0.30;;;;;;;2.10;93.93;103303.44;4933434;28;20031;-58
2023/02/06 06:37:18;;;;;;;0.50;0.50;;;;;;;2.08;94.41;103299.41;4934568;28;20059;-61
2023/02/06 06:39:43;;;;;;;0.32;0.32;;;;;;;2.07;94.33;103309.22;4941018;28;20097;-57
2023/02/06 06:42:09;;;;;;;0.30;0.30;;;;;;;2.03;94.68;103307.28;4936824;29;20181;-60
2023/02/06 06:44:34;;;;;;;0.40;0.40;;;;;;;2.01;95.27;103309.34;4933004;28;20032;-62
2023/02/06 06:47:00;;;;;;;0.30;0.30;;;;;;;2.07;94.87;103303.13;4930306;28;20046;-57
2023/02/06 06:49:25;;;;;;;0.30;0.30;;;;;;;2.15;94.96;103300.09;4939880;28;20042;-60
2023/02/06 06:51:51;;;;;;;0.30;0.30;;;;;;;2.21;94.79;103296.50;4935198;28;20038;-63
2023/02/06 06:54:18;;;;;;;0.60;0.60;;;;;;;2.21;94.63;103302.63;4942281;28;20055;-60
2023/02/06 06:56:44;;;;;;;0.30;0.30;;;;;;;2.24;94.37;103307.50;4944604;28;20067;-61
2023/02/06 06:59:09;;;;;;;0.60;0.57;;;;;;;2.25;94.33;103297.66;4949099;28;20119;-61
2023/02/06 07:01:35;;;;;;;0.30;0.30;;;;;;;2.14;93.94;103296.63;4950211;28;20495;-55
2023/02/06 07:04:00;;;;;;;0.40;0.40;;;;;;;2.05;94.78;103297.22;4950926;28;20126;-61
2023/02/06 07:06:26;;;;;;;0.40;0.40;;;;;;;2.10;95.02;103297.31;4935919;28;20039;-61
2023/02/06 07:08:51;;;;;;;0.30;0.30;;;;;;;2.12;95.01;103312.00;4943588;28;20039;-62
2023/02/06 07:11:17;;;;;;;0.25;0.25;;;;;;;2.06;94.48;103304.94;4945931;28;20042;-59
2023/02/06 07:13:43;;;;;;;0.20;0.20;;;;;;;2.00;94.87;103316.50;4949540;28;20046;-59
2023/02/06 07:16:09;;;;;;;0.30;0.30;;;;;;;2.10;94.90;103307.94;4950138;28;20114;-61
2023/02/06 07:18:37;;;;;;;0.30;0.30;;;;;;;2.18;95.34;103312.91;4940446;28;20051;-63
2023/02/06 07:21:03;;;;;;;0.47;0.47;;;;;;;2.26;95.44;103309.91;4945367;29;20063;-61
2023/02/06 07:23:28;;;;;;;0.30;0.30;;;;;;;2.31;94.36;103317.97;4936179;29;20122;-60
2023/02/06 07:25:55;;;;;;;0.30;0.30;;;;;;;2.14;94.89;103333.03;4957115;28;20039;-57
2023/02/06 07:28:20;;;;;;;0.50;0.50;;;;;;;2.26;95.31;103336.47;4939559;28;20047;-61
2023/02/06 07:30:46;;;;;;;0.43;0.43;;;;;;;2.26;94.78;103344.47;4946976;29;20041;-57
2023/02/06 07:33:11;;;;;;;0.30;0.30;;;;;;;2.20;94.73;103340.06;4946192;28;20402;-61
2023/02/06 07:35:37;;;;;;;0.30;0.30;;;;;;;2.24;95.43;103322.63;4937392;28;20506;-59
2023/02/06 07:38:02;;;;;;;0.95;0.95;;;;;;;2.13;95.33;103331.41;4945612;28;20114;-59
2023/02/06 07:40:28;;;;;;;0.30;0.30;;;;;;;2.27;96.10;103335.44;4959991;28;20134;-58
2023/02/06 07:42:53;;;;;;;0.40;0.40;;;;;;;2.23;95.89;103342.25;4949581;28;20039;-58
2023/02/06 07:45:24;;;;;;;0.40;0.40;;;;;;;2.40;96.08;103351.16;4950513;28;20550;-61
2023/02/06 07:47:50;;;;;;;0.35;0.35;;;;;;;2.50;95.44;103352.16;4947986;28;20050;-53
2023/02/06 07:50:16;;;;;;;0.30;0.30;;;;;;;2.59;95.91;103361.41;4944849;28;20039;-54
2023/02/06 07:52:41;;;;;;;0.40;0.40;;;;;;;2.64;96.09;103363.38;4941766;28;20474;-59
2023/02/06 07:55:09;;;;;;;0.68;0.68;;;;;;;2.73;96.04;103364.59;4939380;28;20050;-59
2023/02/06 07:57:34;;;;;;;0.30;0.30;;;;;;;2.75;96.62;103350.03;4940036;29;20428;-60
2023/02/06 08:00:00;;;;;;;0.20;0.20;;;;;;;2.95;96.13;103346.97;4945256;28;20046;-58
2023/02/06 08:02:25;;;;;;;0.40;0.40;;;;;;;3.07;96.10;103342.41;4940357;28;20031;-53
2023/02/06 08:04:51;;;;;;;0.57;0.57;;;;;;;3.18;96.19;103344.22;4937083;29;20042;-53
2023/02/06 08:07:16;;;;;;;0.30;0.30;;;;;;;3.29;96.24;103345.22;4933564;29;20086;-57
2023/02/06 08:09:42;;;;;;;0.20;0.20;;;;;;;3.35;96.35;103339.72;4933704;28;20189;-59
2023/02/06 08:12:08;;;;;;;0.35;0.35;;;;;;;3.41;96.45;103338.78;4941996;28;20458;-52
2023/02/06 08:14:34;;;;;;;0.40;0.40;;;;;;;3.39;97.22;103340.88;4954380;28;20102;-53
2023/02/06 08:16:59;;;;;;;0.30;0.30;;;;;;;3.40;97.36;103345.16;4952643;28;20123;-55
2023/02/06 08:19:24;;;;;;;0.30;0.30;;;;;;;3.41;97.87;103349.44;4943303;28;20035;-58
2023/02/06 08:21:50;;;;;;;0.22;0.22;;;;;;;3.59;97.54;103343.91;4939137;29;20043;-59
2023/02/06 08:24:16;;;;;;;0.73;0.73;;;;;;;3.62;97.44;103354.06;4946813;28;20071;-57
2023/02/06 08:26:42;;;;;;;0.40;0.40;;;;;;;3.56;97.69;103347.03;4944339;29;20053;-55
2023/02/06 08:29:09;;;;;;;0.30;0.30;;;;;;;3.51;98.37;103348.78;4938095;28;20093;-56
2023/02/06 08:31:37;;;;;;;0.30;0.30;;;;;;;3.68;98.65;103349.63;4935691;28;20517;-53
2023/02/06 08:34:03;;;;;;;0.40;0.40;;;;;;;3.89;98.46;103342.78;4942507;28;20035;-55
2023/02/06 08:36:49;;;;;;;0.30;0.30;;;;;;;4.02;97.77;103334.44;4947049;28;20126;-59
2023/02/06 08:39:16;;;;;;;0.30;0.30;;;;;;;4.08;97.61;103330.78;4909704;29;20084;-55
2023/02/06 08:41:42;;;;;;;0.20;0.20;;;;;;;4.14;97.30;103324.50;4892064;29;20042;-60
2023/02/06 08:44:14;;;;;;;0.30;0.30;;;;;;;4.17;97.42;103324.81;4908169;29;20040;-57
2023/02/06 08:46:41;;;;;;;0.47;0.47;;;;;;;4.18;97.42;103328.28;4908704;29;20044;-54
2023/02/06 08:49:12;;;;;;;1.02;0.75;;;;;;;4.26;97.21;103325.16;4913876;29;20051;-52
2023/02/06 08:51:37;;;;;;;0.20;0.20;;;;;;;4.23;96.96;103326.50;4914327;29;20078;-60
2023/02/06 08:54:06;;;;;;;0.30;0.30;;;;;;;4.30;96.97;103334.28;4914150;29;20524;-51
2023/02/06 08:56:33;;;;;;;0.20;0.20;;;;;;;4.30;96.84;103318.28;4913747;29;20047;-51
2023/02/06 08:58:59;;;;;;;0.30;0.30;;;;;;;4.37;96.87;103317.09;4914186;29;20040;-53
2023/02/06 09:01:25;;;;;;;0.30;0.30;;;;;;;4.43;96.84;103316.06;4911893;29;20051;-54
2023/02/06 09:03:56;;;;;;;0.30;0.30;;;;;;;4.44;96.46;103306.22;4912683;29;20052;-53
2023/02/06 09:06:42;;;;;;;0.20;0.20;;;;;;;4.46;96.72;103318.25;4911760;29;20036;-57
2023/02/06 09:09:09;;;;;;;0.30;0.30;;;;;;;4.47;96.79;103321.75;4820349;29;20314;-57
2023/02/06 09:11:35;;;;;;;0.30;0.30;;;;;;;4.49;96.93;103319.63;4821053;29;20062;-58
2023/02/06 09:14:05;;;;;;;0.30;0.30;;;;;;;4.58;97.11;103328.81;4823279;29;20098;-58
2023/02/06 09:16:33;;;;;;;0.40;0.40;;;;;;;4.65;96.85;103312.59;4853586;29;20045;-55
2023/02/06 09:19:01;;;;;;;0.30;0.30;;;;;;;4.68;96.47;103320.94;4874593;29;20043;-60
2023/02/06 09:21:29;;;;;;;0.20;0.20;;;;;;;4.78;97.10;103323.72;4874396;29;20173;-63
2023/02/06 09:23:57;;;;;;;0.45;0.45;;;;;;;4.81;97.35;103320.56;4874078;29;20045;-58
2023/02/06 09:26:26;;;;;;;0.30;0.30;;;;;;;5.07;96.75;103317.09;4865220;29;20525;-57
2023/02/06 09:28:53;;;;;;;0.30;0.30;;;;;;;5.40;96.76;103321.44;4868517;29;20441;-56
2023/02/06 09:31:19;;;;;;;0.20;0.20;;;;;;;5.68;96.00;103323.00;4870874;29;20037;-56
2023/02/06 09:33:45;;;;;;;0.30;0.30;;;;;;;5.97;96.10;103332.31;4867152;29;20114;-60
2023/02/06 09:36:13;;;;;;;0.20;0.20;;;;;;;6.16;93.62;103331.66;4872222;29;20056;-56
2023/02/06 09:38:42;;;;;;;0.20;0.20;;;;;;;6.39;93.25;103341.94;4875811;29;20055;-58
2023/02/06 09:41:26;;;;;;;0.20;0.20;;;;;;;6.57;92.52;103346.06;4875028;29;20135;-57
2023/02/06 09:44:03;;;;;;;0.32;0.32;;;;;;;6.81;91.35;103347.25;4873020;29;20481;-58
2023/02/06 09:46:32;;;;;;;0.35;0.35;;;;;;;6.62;90.20;103353.31;4918350;28;20163;-56
2023/02/06 09:49:01;;;;;;;0.38;0.38;;;;;;;6.76;90.94;103352.56;4952413;28;20822;-56
2023/02/06 09:51:55;;;;;;;0.20;0.20;;;;;;;6.93;90.24;103352.38;4950193;28;20035;-56
2023/02/06 09:54:48;;;;;;;0.35;0.35;;;;;;;7.06;88.42;103366.06;4952692;28;20031;-58
2023/02/06 09:57:24;;;;;;;0.82;0.82;;;;;;;7.05;87.76;103371.66;4949505;28;20046;-60
2023/02/06 09:59:58;;;;;;;0.55;0.55;;;;;;;7.15;87.53;103371.69;4952579;28;20035;-58
2023/02/06 10:03:02;;;;;;;0.20;0.20;;;;;;;7.17;87.74;103373.06;4949048;29;20067;-54
2023/02/06 10:05:46;;;;;;;0.20;0.20;;;;;;;7.06;86.87;103368.75;4946931;28;20031;-58
2023/02/06 10:08:12;;;;;;;0.20;0.20;;;;;;;6.89;86.88;103367.34;4942966;29;20042;-59
2023/02/06 10:10:43;;;;;;;0.20;0.20;;;;;;;6.65;87.08;103371.53;4951169;28;20039;-53
2023/02/06 10:13:32;;;;;;;0.45;0.45;;;;;;;6.84;86.98;103368.13;4952469;28;20402;-58
2023/02/06 10:16:06;;;;;;;0.17;0.17;;;;;;;7.08;87.16;103361.22;4954864;28;20039;-56
2023/02/06 10:18:58;;;;;;;0.40;0.40;;;;;;;7.14;87.11;103370.09;4947528;28;20039;-53
2023/02/06 10:21:32;;;;;;;0.20;0.20;;;;;;;7.15;87.31;103371.69;4894024;29;20135;-60
2023/02/06 10:24:13;;;;;;;0.40;0.40;;;;;;;7.28;86.45;103382.72;4880238;29;20053;-58
2023/02/06 10:26:40;;;;;;;0.20;0.20;;;;;;;7.55;86.53;103371.78;4887857;29;20052;-59
2023/02/06 10:29:13;;;;;;;0.65;0.65;;;;;;;7.35;85.05;103369.09;4877784;29;20040;-63
2023/02/06 10:32:23;;;;;;;0.50;0.50;;;;;;;7.40;85.25;103370.94;4892173;29;20133;-58
2023/02/06 10:35:21;;;;;;;0.63;0.63;;;;;;;7.62;84.89;103369.66;4888702;29;20072;-56
2023/02/06 10:38:05;;;;;;;0.20;0.20;;;;;;;7.73;85.18;103362.41;4893657;29;20402;-53
2023/02/06 10:40:42;;;;;;;0.10;0.10;;;;;;;7.74;84.06;103354.06;4888510;29;20036;-56
2023/02/06 10:43:23;;;;;;;0.20;0.20;;;;;;;7.79;83.21;103356.78;4886464;29;20508;-59
2023/02/06 10:46:14;;;;;;;;;;;;;;;7.76;82.55;103357.28;4889629;29;20044;-56
2023/02/06 10:48:51;;;;;;;0.30;0.30;;;;;;;7.53;83.69;103357.03;4888867;29;19927;-56
2023/02/06 10:51:31;;;;;;;0.30;0.30;;;;;;;7.56;83.38;103357.31;4889530;29;20056;-59
2023/02/06 10:54:01;;;;;;;0.20;0.20;;;;;;;7.48;83.04;103362.38;4892395;29;20040;-58
2023/02/06 10:56:32;;;;;;;0.10;0.10;;;;;;;7.37;83.77;103358.09;4891376;29;20036;-61
2023/02/06 10:59:01;;;;;;;0.95;0.93;;;;;;;7.34;84.05;103347.91;4932949;29;20055;-59
2023/02/06 11:01:32;;;;;;;0.75;0.47;;;;;;;7.35;84.04;103344.16;4941470;29;20058;-55
2023/02/06 11:04:11;;;;;;;0.30;0.30;;;;;;;7.25;83.86;103361.84;4946075;28;20037;-56
2023/02/06 11:06:39;;;;;;;0.20;0.20;;;;;;;7.16;83.75;103362.63;4944337;29;20043;-61
2023/02/06 11:09:04;;;;;;;0.30;0.30;;;;;;;6.92;84.88;103359.59;4946855;28;20063;-55
2023/02/06 11:11:53;;;;;;;0.20;0.20;;;;;;;6.95;84.46;103351.03;4941813;28;20497;-56
2023/02/06 11:14:24;;;;;;;0.50;0.50;;;;;;;6.93;83.33;103355.06;4940371;28;20032;-56
2023/02/06 11:16:50;;;;;;;0.20;0.20;;;;;;;6.88;83.73;103358.50;4952107;28;20047;-60
2023/02/06 11:19:24;;;;;;;0.20;0.20;;;;;;;6.69;85.30;103354.69;4952119;28;20027;-53
2023/02/06 11:22:09;;;;;;;0.25;0.25;;;;;;;6.65;86.66;103340.22;4951604;28;20042;-61
2023/02/06 11:24:36;;;;;;;0.20;0.20;;;;;;;6.81;85.73;103339.22;4946819;28;20046;-61
2023/02/06 11:27:16;;;;;;;0.30;0.30;;;;;;;6.93;85.99;103345.13;4951009;29;20185;-61
2023/02/06 11:29:48;;;;;;;0.60;0.60;;;;;;;6.79;85.79;103341.34;4951785;28;20045;-59
2023/02/06 11:32:40;;;;;;;0.20;0.20;;;;;;;6.78;85.77;103331.69;4945610;28;20086;-57
2023/02/06 11:35:25;;;;;;;0.20;0.20;;;;;;;6.95;84.93;103337.63;4945022;29;20027;-59
2023/02/06 11:37:53;;;;;;;1.85;0.80;;;;;;;7.12;84.72;103340.88;4946705;28;20035;-54
2023/02/06 11:40:21;;;;;;;0.20;0.20;;;;;;;7.05;85.27;103345.69;4947308;28;20047;-58
2023/02/06 11:43:15;;;;;;;0.20;0.20;;;;;;;6.93;85.88;103347.78;4947774;29;20070;-60
2023/02/06 11:45:41;;;;;;;0.77;0.77;;;;;;;7.06;85.49;103347.31;4940893;29;20443;-59